createdAt,value
2022-11-12T00:00:01.365Z,7.70
2022-11-12T00:02:29.931Z,7.70
2022-11-12T00:04:58.000Z,7.70
2022-11-12T00:07:26.018Z,7.70
2022-11-12T00:09:54.408Z,7.70
2022-11-12T00:12:22.433Z,7.60
2022-11-12T00:14:51.871Z,7.70
2022-11-12T00:17:19.999Z,7.60
2022-11-12T00:19:48.107Z,7.70
2022-11-12T00:22:16.327Z,7.70
2022-11-12T00:24:44.606Z,7.70
2022-11-12T00:27:15.834Z,7.70
2022-11-12T00:29:44.111Z,7.70
2022-11-12T00:32:14.387Z,7.70
2022-11-12T00:34:42.440Z,7.60
2022-11-12T00:37:10.664Z,7.70
2022-11-12T00:39:39.092Z,7.70
2022-11-12T00:42:07.330Z,7.70
2022-11-12T00:44:36.846Z,7.70
2022-11-12T00:47:11.046Z,7.70
2022-11-12T00:49:40.764Z,7.60
2022-11-12T00:52:09.294Z,7.60
2022-11-12T00:54:50.149Z,7.60
2022-11-12T00:57:18.909Z,7.50
2022-11-12T00:59:47.100Z,7.50
2022-11-12T01:02:15.576Z,7.60
2022-11-12T01:04:45.597Z,7.50
2022-11-12T01:07:15.994Z,7.50
2022-11-12T01:09:44.197Z,7.50
2022-11-12T01:12:12.224Z,7.50
2022-11-12T01:14:46.488Z,7.40
2022-11-12T01:17:35.438Z,7.50
2022-11-12T01:20:13.614Z,7.40
2022-11-12T01:22:50.722Z,7.40
2022-11-12T01:25:19.244Z,7.40
2022-11-12T01:27:49.711Z,7.40
2022-11-12T01:30:18.105Z,7.40
2022-11-12T01:32:46.864Z,7.40
2022-11-12T01:35:16.689Z,7.50
2022-11-12T01:37:45.257Z,7.40
2022-11-12T01:40:15.104Z,7.30
2022-11-12T01:42:43.411Z,7.30
2022-11-12T01:45:16.201Z,7.30
2022-11-12T01:47:50.179Z,7.30
2022-11-12T01:50:25.926Z,7.30
2022-11-12T01:53:00.825Z,7.30
2022-11-12T01:55:33.822Z,7.30
2022-11-12T01:58:08.077Z,7.30
2022-11-12T02:00:36.214Z,7.30
2022-11-12T02:03:10.063Z,7.40
2022-11-12T02:05:40.760Z,7.30
2022-11-12T02:08:11.196Z,7.40
2022-11-12T02:10:40.359Z,7.50
2022-11-12T02:13:26.980Z,7.50
2022-11-12T02:15:55.399Z,7.40
2022-11-12T02:18:23.687Z,7.40
2022-11-12T02:20:58.219Z,7.40
2022-11-12T02:23:28.149Z,7.40
2022-11-12T02:25:56.452Z,7.40
2022-11-12T02:28:24.998Z,7.40
2022-11-12T02:30:53.390Z,7.40
2022-11-12T02:33:21.464Z,7.40
2022-11-12T02:35:49.542Z,7.50
2022-11-12T02:38:17.760Z,7.50
2022-11-12T02:40:47.380Z,7.50
2022-11-12T02:43:15.650Z,7.50
2022-11-12T02:45:44.057Z,7.50
2022-11-12T02:48:25.119Z,7.40
2022-11-12T02:50:53.747Z,7.30
2022-11-12T02:53:21.817Z,7.50
2022-11-12T02:55:51.342Z,7.50
2022-11-12T02:58:19.409Z,7.40
2022-11-12T03:00:48.689Z,7.50
2022-11-12T03:03:17.582Z,7.50
2022-11-12T03:05:47.926Z,7.40
2022-11-12T03:08:36.601Z,7.40
2022-11-12T03:11:33.174Z,7.30
2022-11-12T03:14:12.915Z,7.30
2022-11-12T03:21:01.033Z,7.20
2022-11-12T03:26:39.233Z,7.40
2022-11-12T03:29:07.059Z,7.30
2022-11-12T03:31:35.619Z,7.30
2022-11-12T03:34:03.467Z,7.30
2022-11-12T03:36:31.540Z,7.30
2022-11-12T03:38:59.338Z,7.30
2022-11-12T03:41:27.211Z,7.30
2022-11-12T03:43:56.374Z,7.30
2022-11-12T03:46:24.193Z,7.30
2022-11-12T03:48:52.291Z,7.30
2022-11-12T03:51:21.227Z,7.30
2022-11-12T03:53:49.043Z,7.30
2022-11-12T03:56:16.887Z,7.30
2022-11-12T03:58:44.666Z,7.30
2022-11-12T04:01:13.837Z,7.30
2022-11-12T04:03:41.730Z,7.30
2022-11-12T04:06:27.327Z,7.30
2022-11-12T04:08:55.136Z,7.30
2022-11-12T04:11:22.963Z,7.30
2022-11-12T04:13:49.818Z,7.30
2022-11-12T04:16:38.106Z,7.30
2022-11-12T04:19:25.218Z,7.30
2022-11-12T04:21:55.672Z,7.30
2022-11-12T04:24:43.350Z,7.30
2022-11-12T04:27:13.477Z,7.30
2022-11-12T04:29:59.283Z,7.30
2022-11-12T04:32:29.290Z,7.30
2022-11-12T04:34:58.002Z,7.30
2022-11-12T04:37:28.017Z,7.40
2022-11-12T04:40:16.061Z,7.40
2022-11-12T04:43:05.779Z,7.40
2022-11-12T04:45:33.672Z,7.40
2022-11-12T04:48:02.842Z,7.40
2022-11-12T04:50:30.755Z,7.40
2022-11-12T04:52:58.559Z,7.40
2022-11-12T04:55:26.401Z,7.40
2022-11-12T04:58:00.196Z,7.40
2022-11-12T05:00:28.971Z,7.40
2022-11-12T05:02:57.054Z,7.40
2022-11-12T05:05:29.770Z,7.40
2022-11-12T05:08:01.868Z,7.40
2022-11-12T05:10:30.001Z,7.30
2022-11-12T05:12:57.804Z,7.30
2022-11-12T05:15:26.054Z,7.30
2022-11-12T05:17:54.055Z,7.30
2022-11-12T05:20:21.870Z,7.30
2022-11-12T05:23:05.414Z,7.40
2022-11-12T05:25:35.776Z,7.30
2022-11-12T05:28:07.163Z,7.30
2022-11-12T05:30:41.216Z,7.30
2022-11-12T05:33:09.043Z,7.30
2022-11-12T05:35:42.499Z,7.30
2022-11-12T05:38:27.111Z,7.30
2022-11-12T05:41:04.811Z,7.30
2022-11-12T05:43:37.194Z,7.40
2022-11-12T05:46:07.961Z,7.40
2022-11-12T05:48:36.830Z,7.40
2022-11-12T05:51:12.876Z,7.30
2022-11-12T05:53:44.262Z,7.40
2022-11-12T05:56:13.671Z,7.30
2022-11-12T05:58:46.727Z,7.40
2022-11-12T06:01:16.100Z,7.30
2022-11-12T06:03:44.088Z,7.40
2022-11-12T06:06:12.099Z,7.40
2022-11-12T06:08:39.924Z,7.30
2022-11-12T06:11:09.244Z,7.30
2022-11-12T06:13:37.973Z,7.30
2022-11-12T06:16:06.341Z,7.30
2022-11-12T06:18:34.323Z,7.30
2022-11-12T06:21:22.971Z,7.30
2022-11-12T06:23:53.786Z,7.30
2022-11-12T06:26:23.864Z,7.30
2022-11-12T06:28:53.253Z,7.20
2022-11-12T06:31:23.709Z,7.20
2022-11-12T06:33:52.887Z,7.20
2022-11-12T06:36:22.255Z,7.20
2022-11-12T06:38:50.133Z,7.20
2022-11-12T06:41:17.951Z,7.20
2022-11-12T06:43:47.171Z,7.20
2022-11-12T06:46:17.399Z,7.10
2022-11-12T06:48:45.331Z,7.20
2022-11-12T06:51:18.170Z,7.20
2022-11-12T06:53:46.208Z,7.10
2022-11-12T06:56:14.622Z,7.20
2022-11-12T06:58:43.109Z,7.20
2022-11-12T07:01:14.088Z,7.20
2022-11-12T07:03:43.068Z,7.20
2022-11-12T07:06:13.161Z,7.20
2022-11-12T07:08:41.649Z,7.30
2022-11-12T07:11:09.510Z,7.20
2022-11-12T07:13:38.136Z,7.10
2022-11-12T07:16:07.968Z,7.20
2022-11-12T07:18:37.309Z,7.20
2022-11-12T07:21:07.369Z,7.10
2022-11-12T07:23:36.851Z,7.10
2022-11-12T07:26:06.947Z,7.10
2022-11-12T07:28:35.202Z,7.10
2022-11-12T07:31:04.834Z,7.00
2022-11-12T07:33:33.604Z,7.00
2022-11-12T07:36:04.854Z,7.00
2022-11-12T07:38:34.052Z,7.00
2022-11-12T07:41:03.044Z,6.90
2022-11-12T07:43:31.699Z,6.90
2022-11-12T07:46:01.937Z,6.90
2022-11-12T07:48:32.242Z,6.90
2022-11-12T07:51:06.622Z,6.80
2022-11-12T07:53:34.585Z,6.80
2022-11-12T07:56:04.704Z,6.80
2022-11-12T07:58:34.490Z,6.80
2022-11-12T08:01:10.070Z,6.80
2022-11-12T08:03:38.104Z,6.70
2022-11-12T08:06:08.123Z,6.70
2022-11-12T08:08:35.927Z,6.80
2022-11-12T08:11:03.784Z,6.80
2022-11-12T08:13:31.730Z,6.80
2022-11-12T08:16:01.618Z,6.80
2022-11-12T08:18:34.166Z,6.90
2022-11-12T08:21:04.693Z,6.90
2022-11-12T08:23:38.240Z,6.90
2022-11-12T08:26:09.834Z,6.80
2022-11-12T08:28:41.866Z,6.90
2022-11-12T08:31:12.774Z,6.90
2022-11-12T08:33:41.514Z,7.00
2022-11-12T08:36:13.186Z,6.90
2022-11-12T08:38:44.453Z,6.90
2022-11-12T08:41:14.079Z,7.00
2022-11-12T08:43:43.056Z,6.90
2022-11-12T08:46:11.343Z,6.90
2022-11-12T08:48:40.139Z,6.90
2022-11-12T08:51:08.734Z,7.00
2022-11-12T08:53:37.026Z,6.90
2022-11-12T08:56:06.461Z,6.90
2022-11-12T08:58:34.278Z,7.00
2022-11-12T09:01:06.538Z,7.00
2022-11-12T09:03:34.360Z,7.00
2022-11-12T09:06:04.675Z,6.90
2022-11-12T09:08:35.190Z,6.90
2022-11-12T09:11:03.201Z,6.90
2022-11-12T09:13:32.975Z,6.90
2022-11-12T09:16:02.643Z,6.80
2022-11-12T09:18:30.616Z,6.80
2022-11-12T09:21:02.942Z,6.80
2022-11-12T09:23:30.824Z,6.90
2022-11-12T09:25:58.695Z,6.90
2022-11-12T09:28:28.327Z,6.90
2022-11-12T09:30:57.921Z,6.90
2022-11-12T09:33:27.548Z,6.90
2022-11-12T09:35:56.663Z,6.90
2022-11-12T09:38:25.085Z,6.90
2022-11-12T09:41:26.590Z,6.90
2022-11-12T09:43:57.959Z,6.80
2022-11-12T09:46:35.049Z,6.80
2022-11-12T09:49:08.209Z,6.80
2022-11-12T09:51:40.392Z,6.80
2022-11-12T09:54:19.051Z,6.90
2022-11-12T09:56:48.702Z,6.90
2022-11-12T09:59:17.255Z,6.90
2022-11-12T10:02:00.900Z,7.00
2022-11-12T10:04:44.286Z,7.00
2022-11-12T10:07:21.050Z,7.10
2022-11-12T10:10:00.709Z,7.10
2022-11-12T10:12:39.348Z,7.20
2022-11-12T10:15:54.693Z,7.20
2022-11-12T10:18:32.843Z,7.30
2022-11-12T10:21:09.598Z,7.30
2022-11-12T10:23:42.914Z,7.30
2022-11-12T10:26:14.135Z,7.40
2022-11-12T10:28:47.752Z,7.50
2022-11-12T10:31:17.767Z,7.50
2022-11-12T10:33:46.975Z,7.60
2022-11-12T10:36:27.475Z,7.60
2022-11-12T10:38:56.801Z,7.70
2022-11-12T10:41:27.358Z,7.70
2022-11-12T10:43:57.698Z,7.80
2022-11-12T10:46:27.920Z,7.90
2022-11-12T10:49:03.604Z,7.90
2022-11-12T10:51:52.190Z,7.90
2022-11-12T10:54:54.983Z,7.90
2022-11-12T10:57:25.174Z,8.00
2022-11-12T11:00:08.272Z,8.10
2022-11-12T11:02:36.137Z,8.10
2022-11-12T11:05:28.589Z,8.10
2022-11-12T11:07:56.456Z,8.10
2022-11-12T11:10:27.800Z,8.10
2022-11-12T11:13:18.745Z,8.10
2022-11-12T11:16:00.639Z,8.10
2022-11-12T11:18:29.909Z,8.20
2022-11-12T11:21:07.313Z,8.20
2022-11-12T11:23:41.304Z,8.20
2022-11-12T11:26:23.422Z,8.10
2022-11-12T11:28:59.819Z,8.10
2022-11-12T11:31:36.785Z,8.10
2022-11-12T11:34:17.586Z,8.20
2022-11-12T11:36:55.862Z,8.20
2022-11-12T11:39:32.811Z,8.30
2022-11-12T11:42:18.354Z,8.30
2022-11-12T11:44:52.531Z,8.30
2022-11-12T11:47:50.429Z,8.30
2022-11-12T11:50:28.279Z,8.30
2022-11-12T11:53:07.823Z,8.20
2022-11-12T11:55:44.981Z,8.30
2022-11-12T11:58:37.271Z,8.30
2022-11-12T12:01:11.283Z,8.40
2022-11-12T12:03:49.623Z,8.30
2022-11-12T12:06:23.054Z,8.30
2022-11-12T12:09:04.673Z,8.40
2022-11-12T12:11:39.465Z,8.40
2022-11-12T12:14:32.335Z,8.40
2022-11-12T12:17:11.339Z,8.40
2022-11-12T12:19:52.551Z,8.40
2022-11-12T12:22:26.431Z,8.30
2022-11-12T12:24:58.417Z,8.40
2022-11-12T12:27:31.678Z,8.30
2022-11-12T12:30:03.447Z,8.40
2022-11-12T12:32:37.851Z,8.50
2022-11-12T12:35:22.600Z,8.40
2022-11-12T12:37:58.177Z,8.50
2022-11-12T12:40:33.546Z,8.50
2022-11-12T12:43:08.765Z,8.50
2022-11-12T12:45:41.706Z,8.40
2022-11-12T12:48:16.451Z,8.40
2022-11-12T12:50:45.435Z,8.40
2022-11-12T12:53:35.011Z,8.40
2022-11-12T12:56:06.232Z,8.40
2022-11-12T12:58:44.251Z,8.40
2022-11-12T13:01:28.310Z,8.40
2022-11-12T13:03:59.541Z,8.30
2022-11-12T13:06:31.956Z,8.30
2022-11-12T13:09:03.758Z,8.20
2022-11-12T13:12:10.679Z,8.20
2022-11-12T13:15:10.256Z,8.20
2022-11-12T13:17:53.043Z,8.10
2022-11-12T13:20:40.032Z,8.10
2022-11-12T13:23:32.802Z,8.10
2022-11-12T13:26:40.053Z,8.10
2022-11-12T13:29:41.333Z,8.10
2022-11-12T13:32:32.293Z,8.10
2022-11-12T13:35:29.155Z,8.10
2022-11-12T13:38:00.406Z,8.10
2022-11-12T13:40:46.691Z,8.10
2022-11-12T13:43:34.304Z,8.10
2022-11-12T13:46:22.382Z,8.20
2022-11-12T13:48:57.347Z,8.20
2022-11-12T13:51:30.852Z,8.20
2022-11-12T13:54:00.406Z,8.20
2022-11-12T13:56:30.123Z,8.20
2022-11-12T13:59:13.963Z,8.20
2022-11-12T14:01:43.946Z,8.10
2022-11-12T14:04:15.525Z,8.10
2022-11-12T14:06:45.370Z,8.10
2022-11-12T14:09:40.233Z,8.00
2022-11-12T14:12:28.200Z,7.90
2022-11-12T14:15:12.311Z,7.90
2022-11-12T14:17:53.772Z,7.90
2022-11-12T14:20:26.470Z,7.90
2022-11-12T14:22:55.466Z,7.90
2022-11-12T14:25:26.183Z,7.90
2022-11-12T14:27:56.839Z,7.90
2022-11-12T14:30:27.243Z,7.90
2022-11-12T14:33:02.138Z,7.90
2022-11-12T14:35:36.683Z,7.90
2022-11-12T14:38:14.490Z,7.90
2022-11-12T14:40:47.206Z,7.90
2022-11-12T14:43:27.980Z,7.90
2022-11-12T14:45:57.734Z,8.00
2022-11-12T14:48:27.214Z,7.90
2022-11-12T14:51:00.769Z,7.90
2022-11-12T14:53:32.876Z,8.00
2022-11-12T14:56:04.256Z,7.90
2022-11-12T14:58:34.351Z,7.90
2022-11-12T15:01:59.308Z,7.90
2022-11-12T15:04:25.752Z,7.90
2022-11-12T15:06:56.082Z,7.90
2022-11-12T15:09:36.615Z,7.80
2022-11-12T15:12:09.469Z,7.80
2022-11-12T15:14:37.418Z,7.80
2022-11-12T15:17:05.985Z,7.70
2022-11-12T15:19:36.589Z,7.70
2022-11-12T15:22:05.507Z,7.70
2022-11-12T15:24:34.822Z,7.70
2022-11-12T15:27:23.442Z,7.70
2022-11-12T15:30:18.755Z,7.70
2022-11-12T15:32:48.487Z,7.60
2022-11-12T15:35:45.928Z,7.70
2022-11-12T15:38:24.016Z,7.60
2022-11-12T15:40:57.570Z,7.60
2022-11-12T15:43:28.333Z,7.60
2022-11-12T15:45:59.205Z,7.50
2022-11-12T15:48:28.565Z,7.50
2022-11-12T15:50:57.431Z,7.50
2022-11-12T15:53:37.419Z,7.50
2022-11-12T15:56:12.140Z,7.50
2022-11-12T15:58:41.726Z,7.50
2022-11-12T16:01:13.625Z,7.40
2022-11-12T16:03:42.685Z,7.40
2022-11-12T16:06:13.013Z,7.30
2022-11-12T16:08:42.002Z,7.30
2022-11-12T16:11:32.615Z,7.40
2022-11-12T16:14:00.761Z,7.30
2022-11-12T16:16:31.711Z,7.30
2022-11-12T16:18:59.554Z,7.30
2022-11-12T16:21:28.537Z,7.30
2022-11-12T16:23:57.686Z,7.30
2022-11-12T16:26:30.110Z,7.30
2022-11-12T16:28:58.407Z,7.20
2022-11-12T16:31:26.217Z,7.30
2022-11-12T16:33:55.367Z,7.20
2022-11-12T16:36:23.204Z,7.20
2022-11-12T16:38:50.999Z,7.20
2022-11-12T16:41:18.858Z,7.20
2022-11-12T16:43:46.697Z,7.10
2022-11-12T16:46:26.099Z,7.10
2022-11-12T16:49:00.984Z,7.10
2022-11-12T16:51:29.956Z,7.20
2022-11-12T16:54:01.171Z,7.20
2022-11-12T16:56:32.742Z,7.10
2022-11-12T16:59:08.344Z,7.10
2022-11-12T17:01:37.489Z,7.10
2022-11-12T17:04:06.705Z,7.10
2022-11-12T17:06:36.566Z,7.10
2022-11-12T17:09:05.214Z,7.10
2022-11-12T17:11:33.874Z,7.10
2022-11-12T17:14:02.890Z,7.10
2022-11-12T17:16:30.998Z,7.10
2022-11-12T17:19:01.252Z,7.10
2022-11-12T17:21:30.604Z,7.00
2022-11-12T17:23:58.899Z,7.00
2022-11-12T17:26:26.727Z,7.00
2022-11-12T17:29:01.077Z,7.10
2022-11-12T17:31:31.592Z,7.00
2022-11-12T17:33:59.462Z,7.00
2022-11-12T17:36:29.766Z,7.10
2022-11-12T17:38:58.908Z,7.00
2022-11-12T17:41:28.595Z,7.00
2022-11-12T17:43:57.039Z,7.00
2022-11-12T17:46:25.364Z,7.00
2022-11-12T17:48:53.583Z,7.10
2022-11-12T17:51:23.596Z,7.10
2022-11-12T17:53:53.334Z,7.10
2022-11-12T17:56:23.934Z,7.10
2022-11-12T17:58:52.571Z,7.10
2022-11-12T18:01:22.293Z,7.00
2022-11-12T18:03:51.922Z,7.00
2022-11-12T18:06:21.810Z,7.00
2022-11-12T18:08:56.020Z,7.10
2022-11-12T18:11:24.899Z,7.10
2022-11-12T18:13:52.743Z,7.10
2022-11-12T18:16:23.807Z,7.00
2022-11-12T18:18:55.065Z,7.10
2022-11-12T18:21:23.514Z,7.00
2022-11-12T18:23:51.879Z,7.00
2022-11-12T18:26:22.299Z,7.00
2022-11-12T18:28:52.363Z,7.00
2022-11-12T18:31:20.909Z,7.00
2022-11-12T18:33:48.819Z,7.00
2022-11-12T18:36:18.250Z,6.90
2022-11-12T18:38:49.860Z,6.90
2022-11-12T18:41:19.464Z,6.90
2022-11-12T18:43:48.726Z,6.90
2022-11-12T18:46:16.636Z,6.90
2022-11-12T18:48:44.552Z,6.90
2022-11-12T18:51:15.023Z,6.90
2022-11-12T18:53:43.787Z,6.90
2022-11-12T18:56:15.785Z,6.90
2022-11-12T18:58:43.919Z,6.90
2022-11-12T19:01:15.932Z,6.80
2022-11-12T19:03:44.716Z,6.80
2022-11-12T19:06:14.196Z,6.70
2022-11-12T19:08:54.570Z,6.70
2022-11-12T19:11:25.254Z,6.70
2022-11-12T19:13:57.883Z,6.60
2022-11-12T19:16:28.427Z,6.60
2022-11-12T19:18:56.283Z,6.60
2022-11-12T19:21:27.481Z,6.70
2022-11-12T19:23:56.947Z,6.70
2022-11-12T19:26:25.247Z,6.70
2022-11-12T19:28:53.430Z,6.70
2022-11-12T19:31:23.530Z,6.60
2022-11-12T19:33:52.779Z,6.70
2022-11-12T19:36:22.109Z,6.70
2022-11-12T19:38:54.510Z,6.70
2022-11-12T19:41:22.345Z,6.70
2022-11-12T19:43:50.208Z,6.70
2022-11-12T19:46:18.694Z,6.70
2022-11-12T19:48:46.743Z,6.60
2022-11-12T19:51:15.958Z,6.70
2022-11-12T19:53:45.346Z,6.70
2022-11-12T19:56:17.136Z,6.70
2022-11-12T19:58:47.146Z,6.70
2022-11-12T20:01:16.668Z,6.70
2022-11-12T20:03:44.604Z,6.70
2022-11-12T20:06:15.153Z,6.70
2022-11-12T20:08:43.095Z,6.70
2022-11-12T20:11:11.442Z,6.70
2022-11-12T20:13:39.301Z,6.70
2022-11-12T20:16:07.998Z,6.60
2022-11-12T20:18:35.903Z,6.60
2022-11-12T20:21:05.512Z,6.60
2022-11-12T20:23:37.103Z,6.70
2022-11-12T20:26:07.864Z,6.60
2022-11-12T20:28:42.533Z,6.60
2022-11-12T20:31:12.674Z,6.60
2022-11-12T20:33:42.676Z,6.60
2022-11-12T20:36:12.167Z,6.60
2022-11-12T20:38:43.319Z,6.50
2022-11-12T20:41:13.864Z,6.50
2022-11-12T20:43:41.948Z,6.50
2022-11-12T20:46:10.884Z,6.50
2022-11-12T20:48:43.155Z,6.50
2022-11-12T20:51:29.172Z,6.50
2022-11-12T20:54:00.712Z,6.50
2022-11-12T20:56:30.230Z,6.50
2022-11-12T20:58:58.728Z,6.50
2022-11-12T21:01:28.590Z,6.50
2022-11-12T21:03:57.811Z,6.50
2022-11-12T21:06:29.269Z,6.50
2022-11-12T21:09:00.694Z,6.50
2022-11-12T21:11:28.537Z,6.50
2022-11-12T21:13:56.365Z,6.50
2022-11-12T21:16:24.201Z,6.50
2022-11-12T21:18:52.107Z,6.50
2022-11-12T21:21:21.275Z,6.50
2022-11-12T21:23:50.855Z,6.50
2022-11-12T21:26:21.277Z,6.50
2022-11-12T21:28:50.526Z,6.60
2022-11-12T21:31:19.923Z,6.60
2022-11-12T21:33:51.030Z,6.50
2022-11-12T21:36:20.131Z,6.60
2022-11-12T21:38:48.512Z,6.60
2022-11-12T21:41:18.202Z,6.60
2022-11-12T21:43:48.065Z,6.60
2022-11-12T21:46:17.976Z,6.50
2022-11-12T21:48:49.004Z,6.60
2022-11-12T21:51:21.323Z,6.60
2022-11-12T21:53:53.362Z,6.60
2022-11-12T21:56:21.211Z,6.60
2022-11-12T21:58:50.382Z,6.60
2022-11-12T22:01:20.756Z,6.60
2022-11-12T22:03:49.727Z,6.70
2022-11-12T22:06:18.229Z,6.70
2022-11-12T22:08:46.114Z,6.70
2022-11-12T22:11:15.904Z,6.70
2022-11-12T22:13:44.248Z,6.70
2022-11-12T22:16:14.898Z,6.70
2022-11-12T22:18:44.051Z,6.70
2022-11-12T22:21:14.449Z,6.70
2022-11-12T22:23:42.364Z,6.70
2022-11-12T22:26:13.139Z,6.70
2022-11-12T22:28:41.267Z,6.70
2022-11-12T22:31:11.123Z,6.70
2022-11-12T22:33:40.784Z,6.70
2022-11-12T22:36:11.055Z,6.70
2022-11-12T22:38:40.389Z,6.70
2022-11-12T22:41:10.136Z,6.70
2022-11-12T22:43:38.057Z,6.70
2022-11-12T22:46:07.880Z,6.70
2022-11-12T22:48:36.490Z,6.70
2022-11-12T22:51:07.433Z,6.70
2022-11-12T22:53:35.681Z,6.70
2022-11-12T22:56:04.126Z,6.70
2022-11-12T22:58:31.991Z,6.70
2022-11-12T23:00:59.857Z,6.70
2022-11-12T23:03:27.677Z,6.70
2022-11-12T23:05:58.522Z,6.70
2022-11-12T23:08:27.920Z,6.70
2022-11-12T23:10:56.434Z,6.70
2022-11-12T23:13:26.648Z,6.80
2022-11-12T23:15:54.728Z,6.80
2022-11-12T23:18:22.562Z,6.70
2022-11-12T23:20:50.503Z,6.70
2022-11-12T23:23:18.443Z,6.70
2022-11-12T23:25:47.601Z,6.70
2022-11-12T23:28:15.376Z,6.70
2022-11-12T23:30:49.713Z,6.70
2022-11-12T23:33:17.518Z,6.70
2022-11-12T23:35:45.321Z,6.70
2022-11-12T23:38:13.119Z,6.70
2022-11-12T23:40:40.971Z,6.70
2022-11-12T23:43:10.104Z,6.70
2022-11-12T23:45:37.981Z,6.70
2022-11-12T23:48:06.498Z,6.70
2022-11-12T23:50:34.351Z,6.60
2022-11-12T23:53:02.186Z,6.70
2022-11-12T23:55:31.904Z,6.70
2022-11-12T23:58:01.643Z,6.70
